Time;durP1;ratioP1;P1;durP2;ratioP2;P2;SDS_P1;SDS_P2;PMS_P1;PMS_P2;Temp;Humidity;BMP_temperature;BMP_pressure;BME280_temperature;BME280_humidity;BME280_pressure;Samples;Min_cycle;Max_cycle;Signal;HPM_P1;HPM_P2
2021/04/19 00:00:35;;;;;;;38.03;24.43;;;;;;;6.99;74.79;99779.48;467421;1174;115388;-63
2021/04/19 00:10:45;;;;;;;40.90;27.10;;;;;;;7.05;74.73;99769.66;467920;1174;116890;-65
2021/04/19 00:20:48;;;;;;;37.57;26.07;;;;;;;7.15;74.48;99761.31;466885;1174;116328;-63
2021/04/19 00:30:52;;;;;;;33.57;24.23;;;;;;;7.25;74.41;99734.77;467021;1174;116414;-64
2021/04/19 00:40:57;;;;;;;39.30;24.60;;;;;;;7.25;74.07;99719.09;466865;1174;116899;-60
2021/04/19 00:51:02;;;;;;;36.07;26.70;;;;;;;7.22;74.22;99690.52;466540;1174;115681;-62
2021/04/19 01:01:07;;;;;;;40.55;27.80;;;;;;;7.24;74.75;99676.48;467204;1173;116296;-62
2021/04/19 01:11:11;;;;;;;32.33;25.00;;;;;;;7.27;74.96;99625.83;466654;1174;116521;-66
2021/04/19 01:21:15;;;;;;;37.17;25.47;;;;;;;7.25;75.16;99606.78;468509;1174;116754;-63
2021/04/19 01:31:19;;;;;;;32.80;22.10;;;;;;;7.18;75.23;99608.86;468820;1174;117058;-64
2021/04/19 01:41:23;;;;;;;37.00;23.80;;;;;;;7.03;75.26;99633.13;467349;1174;116712;-63
2021/04/19 01:51:28;;;;;;;36.40;24.70;;;;;;;6.90;75.65;99612.84;467552;1174;116086;-62
2021/04/19 02:01:34;;;;;;;38.05;24.40;;;;;;;6.83;76.25;99646.23;467532;1174;116163;-62
2021/04/19 02:11:52;;;;;;;33.60;24.90;;;;;;;6.84;76.25;99657.49;466733;1174;115636;-63
2021/04/19 02:22:03;;;;;;;33.35;25.30;;;;;;;6.92;76.64;99664.95;467521;1175;117019;-62
2021/04/19 02:32:12;;;;;;;33.63;23.10;;;;;;;6.96;76.94;99654.30;467887;1174;115866;-63
2021/04/19 02:42:17;;;;;;;37.90;28.00;;;;;;;6.89;77.08;99662.50;467562;1174;176481;-63
2021/04/19 02:52:21;;;;;;;34.50;25.10;;;;;;;6.75;76.86;99648.34;467935;1174;117144;-65
2021/04/19 03:02:28;;;;;;;36.20;25.30;;;;;;;6.63;77.68;99651.53;466851;1174;116916;-65
2021/04/19 03:12:34;;;;;;;44.75;28.80;;;;;;;6.56;77.64;99643.98;466899;1174;116106;-62
2021/04/19 03:22:41;;;;;;;32.30;22.85;;;;;;;6.66;78.53;99618.32;467481;1174;116580;-62
2021/04/19 03:32:48;;;;;;;34.25;25.30;;;;;;;6.72;78.37;99581.48;466949;1174;116148;-62
2021/04/19 03:42:56;;;;;;;30.20;21.70;;;;;;;6.65;79.14;99655.77;467799;1174;116823;-63
2021/04/19 03:53:01;;;;;;;30.23;21.60;;;;;;;6.74;79.94;99646.66;467321;1174;117272;-63
2021/04/19 04:03:06;;;;;;;25.60;19.70;;;;;;;7.07;80.11;99648.57;466642;1174;118781;-61
2021/04/19 04:13:10;;;;;;;25.27;19.87;;;;;;;7.43;80.14;99645.06;467433;1174;115799;-62
2021/04/19 04:23:14;;;;;;;20.57;17.83;;;;;;;7.90;79.90;99650.55;466728;1174;117122;-61
2021/04/19 04:33:18;;;;;;;20.20;16.07;;;;;;;8.40;79.31;99653.16;467305;1174;116916;-63
2021/04/19 04:43:26;;;;;;;17.60;14.87;;;;;;;9.02;78.54;99648.96;467421;1174;115934;-64
2021/04/19 04:53:41;;;;;;;15.80;14.05;;;;;;;9.58;77.67;99637.91;466974;1175;116640;-62
2021/04/19 05:03:46;;;;;;;18.17;15.30;;;;;;;10.36;76.50;99641.95;467309;1174;117450;-63
2021/04/19 05:13:50;;;;;;;14.40;12.90;;;;;;;13.13;75.81;99650.55;467770;1174;116249;-64
2021/04/19 05:23:54;;;;;;;10.75;9.65;;;;;;;20.39;66.61;99643.38;466944;1174;116635;-64
2021/04/19 05:34:00;;;;;;;9.20;8.30;;;;;;;24.58;58.23;99632.87;467680;1175;116406;-62
2021/04/19 05:44:04;;;;;;;8.33;6.47;;;;;;;27.41;51.55;99625.55;467774;1173;116396;-62
2021/04/19 05:54:11;;;;;;;7.95;6.95;;;;;;;28.71;47.18;99628.50;467450;1174;118537;-66
2021/04/19 06:04:23;;;;;;;7.70;7.10;;;;;;;30.03;42.12;99635.92;468036;1175;116389;-63
2021/04/19 06:14:32;;;;;;;7.90;7.20;;;;;;;30.45;39.27;99635.22;469117;1174;116216;-67
2021/04/19 06:24:35;;;;;;;8.93;8.13;;;;;;;31.79;36.69;99628.77;470130;1174;116498;-68
2021/04/19 06:34:39;;;;;;;7.83;7.23;;;;;;;32.74;35.00;99638.55;467503;1174;116342;-67
2021/04/19 06:44:43;;;;;;;10.30;8.50;;;;;;;35.04;33.15;99636.73;467868;1174;116191;-66
2021/04/19 06:54:46;;;;;;;;;;;;;;;30.62;30.44;99641.66;467841;1174;115324;-67
2021/04/19 07:04:52;;;;;;;10.70;9.50;;;;;;;29.07;32.61;99635.14;467943;1174;103073;-67
2021/04/19 07:14:57;;;;;;;10.75;9.80;;;;;;;27.86;33.83;99632.97;467135;1174;116419;-66
2021/04/19 07:25:00;;;;;;;13.93;11.77;;;;;;;24.59;33.84;99628.34;467722;1174;116492;-67
2021/04/19 07:35:06;;;;;;;11.73;10.63;;;;;;;30.18;34.16;99622.84;467543;1174;116032;-69
2021/04/19 07:45:19;;;;;;;12.15;10.40;;;;;;;28.56;31.94;99617.14;467968;1175;116802;-70
2021/04/19 07:55:26;;;;;;;9.50;8.70;;;;;;;30.01;29.89;99616.38;467539;1174;116486;-68
2021/04/19 08:05:42;;;;;;;8.53;7.70;;;;;;;33.57;28.93;99608.06;467594;1174;116998;-69
2021/04/19 08:15:48;;;;;;;9.70;7.37;;;;;;;34.82;26.85;99595.88;467638;1174;115571;-67
2021/04/19 08:25:53;;;;;;;13.20;7.20;;;;;;;32.42;26.76;99593.67;467786;1174;116208;-74
2021/04/19 08:35:58;;;;;;;11.53;7.23;;;;;;;27.13;28.90;99588.88;466968;1174;116212;-75
2021/04/19 08:46:02;;;;;;;5.38;4.60;;;;;;;23.80;32.20;99579.69;467531;1174;117037;-74
2021/04/19 08:56:06;;;;;;;6.60;5.90;;;;;;;22.18;33.66;99581.42;467804;1174;115813;-74
2021/04/19 09:06:16;;;;;;;9.65;7.70;;;;;;;21.07;35.62;99584.69;467587;1175;115363;-76
2021/04/19 09:16:22;;;;;;;19.30;8.60;;;;;;;20.09;37.32;99576.31;467112;1174;117008;-65
2021/04/19 09:26:44;;;;;;;11.30;8.80;;;;;;;19.84;38.30;99577.00;466538;1174;116286;-67
2021/04/19 09:36:51;;;;;;;9.15;8.20;;;;;;;19.30;39.09;99578.00;467202;1174;116890;-66
2021/04/19 09:46:56;;;;;;;7.75;7.00;;;;;;;19.05;39.97;99571.69;467463;1174;116447;-65
2021/04/19 09:57:00;;;;;;;10.53;7.60;;;;;;;18.51;40.67;99572.48;467095;1174;116457;-64
2021/04/19 10:07:04;;;;;;;9.70;7.30;;;;;;;18.60;40.40;99571.59;467704;1174;115747;-64
2021/04/19 10:17:15;;;;;;;10.10;7.53;;;;;;;18.36;40.98;99573.99;466226;1174;116493;-62
2021/04/19 10:27:24;;;;;;;8.90;8.00;;;;;;;17.76;41.66;99549.50;467515;1174;116073;-64
2021/04/19 10:37:28;;;;;;;8.63;6.47;;;;;;;17.96;40.35;99536.96;467152;1174;115471;-62
2021/04/19 10:47:33;;;;;;;7.40;6.70;;;;;;;17.74;39.90;99556.78;467299;1167;307882;-64
2021/04/19 10:57:37;;;;;;;8.15;7.35;;;;;;;17.04;40.00;99545.51;468423;1174;116553;-62
2021/04/19 11:07:44;;;;;;;7.50;6.75;;;;;;;17.13;39.75;99521.73;466919;1174;118008;-64
2021/04/19 11:17:48;;;;;;;7.40;6.63;;;;;;;17.07;39.28;99523.99;465982;1174;116922;-64
2021/04/19 11:27:53;;;;;;;7.38;6.63;;;;;;;16.80;38.76;99530.84;471835;1162;116094;-63
2021/04/19 11:38:02;;;;;;;8.87;6.13;;;;;;;16.78;38.49;99522.16;468740;1174;115323;-58
2021/04/19 11:48:09;;;;;;;5.80;5.30;;;;;;;16.89;36.94;99518.55;467453;1174;116533;-59
2021/04/19 11:58:13;;;;;;;9.70;6.17;;;;;;;16.73;37.45;99529.72;467986;1175;115715;-60
2021/04/19 12:08:17;;;;;;;7.17;5.37;;;;;;;16.93;35.55;99508.50;467381;1175;115807;-61
2021/04/19 12:18:21;;;;;;;5.63;5.00;;;;;;;17.11;35.62;99494.52;468391;1174;116085;-62
2021/04/19 12:28:27;;;;;;;7.63;4.70;;;;;;;17.04;34.47;99503.07;466943;1174;116449;-60
2021/04/19 12:38:30;;;;;;;6.30;5.45;;;;;;;16.87;35.34;99477.23;467453;1174;116712;-61
2021/04/19 12:48:34;;;;;;;5.95;4.10;;;;;;;16.81;33.02;99497.19;467707;1174;116401;-61
2021/04/19 12:58:40;;;;;;;4.17;3.77;;;;;;;16.55;34.19;99463.31;468862;1174;116534;-60
2021/04/19 13:08:46;;;;;;;7.40;4.93;;;;;;;16.41;33.48;99466.39;467308;1174;115971;-61
2021/04/19 13:18:51;;;;;;;6.07;4.30;;;;;;;16.15;33.03;99469.56;468230;1174;116381;-60
2021/04/19 13:28:55;;;;;;;5.85;4.55;;;;;;;16.07;33.24;99454.36;467394;1174;116590;-61
2021/04/19 13:38:59;;;;;;;6.40;4.00;;;;;;;16.01;34.58;99455.75;467184;1174;116612;-63
2021/04/19 13:49:03;;;;;;;5.73;4.55;;;;;;;16.01;34.07;99447.80;468433;1174;116262;-63
2021/04/19 13:59:07;;;;;;;5.93;5.30;;;;;;;16.02;34.04;99456.59;467393;1176;116280;-57
2021/04/19 14:09:10;;;;;;;5.03;4.23;;;;;;;16.02;33.93;99438.88;467880;1174;115686;-64
2021/04/19 14:19:14;;;;;;;5.25;3.45;;;;;;;15.95;32.73;99445.72;467758;1174;115841;-60
2021/04/19 14:29:18;;;;;;;3.50;3.20;;;;;;;15.86;32.18;99449.97;466810;1174;116392;-63
2021/04/19 14:39:22;;;;;;;6.30;3.83;;;;;;;15.89;32.71;99443.57;468006;1174;116860;-64
2021/04/19 14:49:26;;;;;;;4.30;3.80;;;;;;;15.79;32.65;99444.38;467390;1173;115944;-63
2021/04/19 14:59:30;;;;;;;4.20;3.40;;;;;;;15.75;33.16;99448.28;467191;1174;116394;-68
2021/04/19 15:09:34;;;;;;;5.30;4.07;;;;;;;15.82;32.87;99433.55;468217;1174;118074;-60
2021/04/19 15:19:38;;;;;;;5.37;4.07;;;;;;;15.78;32.74;99431.30;467676;1174;117755;-60
2021/04/19 15:29:44;;;;;;;;;;;;;;;15.71;32.88;99433.66;451377;1174;10114291;-60
2021/04/19 15:39:47;;;;;;;6.03;4.67;;;;;;;15.54;32.64;99440.43;467498;1174;102930;-63
2021/04/19 15:49:52;;;;;;;5.57;4.87;;;;;;;15.31;32.03;99445.91;466813;1174;116713;-61
2021/04/19 15:59:56;;;;;;;6.10;4.40;;;;;;;15.21;33.34;99432.63;466947;1174;164890;-69
2021/04/19 16:10:00;;;;;;;7.65;5.50;;;;;;;15.16;33.05;99440.13;467125;1174;115818;-65
2021/04/19 16:20:05;;;;;;;5.45;4.00;;;;;;;15.05;33.27;99437.57;467159;1173;116104;-65
2021/04/19 16:30:15;;;;;;;6.47;3.77;;;;;;;14.87;33.31;99438.16;467214;1174;115877;-60
2021/04/19 16:40:20;;;;;;;6.45;4.10;;;;;;;14.70;34.00;99443.04;467289;1174;115884;-59
2021/04/19 16:50:24;;;;;;;5.65;4.95;;;;;;;14.78;33.74;99439.78;466633;1174;115923;-61
2021/04/19 17:00:28;;;;;;;6.17;4.67;;;;;;;14.50;33.89;99431.50;467757;1174;115564;-60
2021/04/19 17:10:32;;;;;;;7.57;3.93;;;;;;;14.21;34.19;99442.66;467406;1174;116768;-61
2021/04/19 17:20:37;;;;;;;12.15;6.10;;;;;;;13.84;35.08;99443.00;466690;1169;116673;-62
2021/04/19 17:30:41;;;;;;;8.10;5.15;;;;;;;13.43;35.49;99442.66;467863;1174;117072;-62
2021/04/19 17:40:46;;;;;;;8.25;5.60;;;;;;;13.02;35.94;99445.74;467227;1174;116203;-60
2021/04/19 17:50:50;;;;;;;7.73;6.37;;;;;;;12.68;36.63;99461.48;466933;1174;116059;-61
2021/04/19 18:00:56;;;;;;;8.80;6.27;;;;;;;12.30;37.54;99465.17;467784;1167;116879;-62
2021/04/19 18:11:01;;;;;;;9.47;5.63;;;;;;;12.11;38.12;99473.58;467067;1174;116031;-61
2021/04/19 18:21:06;;;;;;;12.87;7.73;;;;;;;11.92;38.60;99488.02;467244;1174;117054;-60
2021/04/19 18:31:15;;;;;;;11.22;7.72;;;;;;;11.54;39.32;99497.66;463482;1174;10001228;-62
2021/04/19 18:41:20;;;;;;;15.40;9.77;;;;;;;11.31;40.19;99491.38;466022;1174;117176;-60
2021/04/19 18:51:25;;;;;;;15.97;12.07;;;;;;;10.99;40.96;99503.14;467265;1175;116013;-60
2021/04/19 19:01:29;;;;;;;16.50;10.70;;;;;;;10.77;41.70;99498.47;468726;1174;116349;-63
2021/04/19 19:11:34;;;;;;;15.33;10.70;;;;;;;10.62;42.68;99505.60;466990;1174;116658;-60
2021/04/19 19:21:37;;;;;;;17.20;10.03;;;;;;;10.39;43.32;99500.03;468879;1174;116262;-60
2021/04/19 19:31:41;;;;;;;18.00;10.90;;;;;;;10.23;43.93;99508.05;460230;1174;10001748;-62
2021/04/19 19:41:45;;;;;;;18.70;11.40;;;;;;;9.99;44.76;99497.33;467506;1174;117100;-62
2021/04/19 19:51:49;;;;;;;20.90;13.33;;;;;;;9.81;45.78;99500.15;460033;1174;10003109;-62
2021/04/19 20:01:54;;;;;;;17.47;13.70;;;;;;;9.60;46.23;99494.47;467883;1174;115980;-60
2021/04/19 20:11:58;;;;;;;19.07;16.03;;;;;;;9.35;46.64;99485.48;466788;1174;116396;-58
2021/04/19 20:22:02;;;;;;;18.20;13.63;;;;;;;9.14;47.79;99480.60;468066;1174;116188;-59
2021/04/19 20:32:07;;;;;;;19.93;12.90;;;;;;;9.04;48.27;99482.94;467625;1174;116873;-59
2021/04/19 20:42:11;;;;;;;18.67;11.87;;;;;;;8.89;49.07;99476.83;466746;1174;115709;-58
2021/04/19 20:52:15;;;;;;;17.50;12.73;;;;;;;8.75;49.84;99475.01;467883;1174;117121;-56
2021/04/19 21:02:19;;;;;;;14.10;11.30;;;;;;;8.59;50.22;99472.44;466899;1173;116124;-65
2021/04/19 21:12:23;;;;;;;18.60;13.67;;;;;;;8.42;50.90;99475.98;467043;1174;115586;-60
2021/04/19 21:22:27;;;;;;;19.87;13.37;;;;;;;8.34;51.66;99470.38;467039;1175;115911;-60
2021/04/19 21:32:31;;;;;;;21.20;14.23;;;;;;;8.21;51.96;99471.07;471295;1174;117338;-62
2021/04/19 21:42:36;;;;;;;20.60;15.70;;;;;;;8.07;52.36;99460.52;469139;1174;116021;-62
2021/04/19 21:52:41;;;;;;;30.00;19.93;;;;;;;7.66;53.56;99461.86;467126;1174;116503;-65
2021/04/19 22:02:44;;;;;;;36.77;20.53;;;;;;;7.28;54.96;99465.62;468430;1175;118457;-63
2021/04/19 22:12:49;;;;;;;29.90;20.13;;;;;;;6.96;55.77;99457.67;467063;1175;115999;-66
2021/04/19 22:22:55;;;;;;;26.83;18.43;;;;;;;6.78;56.04;99457.67;468309;1173;118222;-60
2021/04/19 22:33:00;;;;;;;32.25;17.25;;;;;;;6.45;57.54;99456.69;466841;1173;115605;-61
2021/04/19 22:43:05;;;;;;;28.50;17.13;;;;;;;6.23;58.24;99443.83;467053;1174;116975;-64
2021/04/19 22:53:09;;;;;;;32.00;17.85;;;;;;;5.97;58.54;99447.67;468446;1175;116633;-60
2021/04/19 23:03:13;;;;;;;33.95;18.85;;;;;;;5.80;59.78;99438.05;467390;1174;116135;-60
2021/04/19 23:13:17;;;;;;;29.55;17.15;;;;;;;5.94;59.88;99438.23;467393;1175;116925;-60
2021/04/19 23:23:21;;;;;;;32.35;18.50;;;;;;;6.30;60.40;99441.80;468144;1174;118426;-61
2021/04/19 23:33:24;;;;;;;34.85;17.80;;;;;;;6.36;60.35;99436.27;467126;1174;116730;-60
2021/04/19 23:43:28;;;;;;;35.90;20.60;;;;;;;6.06;60.36;99426.42;467158;1173;117699;-60
2021/04/19 23:53:32;;;;;;;30.90;17.60;;;;;;;5.70;61.07;99422.84;467157;1174;116060;-59
